sensor_id;sensor_type;location;lat;lon;timestamp;temperature;humidity
21207;DHT22;10761;48.532;8.026;2023-04-06T00:01:25;2.00;45.50
21207;DHT22;10761;48.532;8.026;2023-04-06T00:03:51;1.90;99.90
21207;DHT22;10761;48.532;8.026;2023-04-06T00:06:17;1.90;99.90
21207;DHT22;10761;48.532;8.026;2023-04-06T00:08:42;2.00;1.00
21207;DHT22;10761;48.532;8.026;2023-04-06T00:11:08;2.00;99.90
21207;DHT22;10761;48.532;8.026;2023-04-06T00:13:34;1.90;1.00
21207;DHT22;10761;48.532;8.026;2023-04-06T00:16:00;2.00;1.00
21207;DHT22;10761;48.532;8.026;2023-04-06T00:18:25;2.00;1.00
21207;DHT22;10761;48.532;8.026;2023-04-06T00:20:51;1.90;99.90
21207;DHT22;10761;48.532;8.026;2023-04-06T00:23:17;1.80;99.90
21207;DHT22;10761;48.532;8.026;2023-04-06T00:25:43;1.70;1.00
21207;DHT22;10761;48.532;8.026;2023-04-06T00:28:08;1.70;1.00
21207;DHT22;10761;48.532;8.026;2023-04-06T00:30:34;1.70;1.00
21207;DHT22;10761;48.532;8.026;2023-04-06T00:33:00;1.60;1.00
21207;DHT22;10761;48.532;8.026;2023-04-06T00:35:26;1.60;1.00
21207;DHT22;10761;48.532;8.026;2023-04-06T00:37:51;1.50;1.00
21207;DHT22;10761;48.532;8.026;2023-04-06T00:40:17;1.50;1.00
21207;DHT22;10761;48.532;8.026;2023-04-06T00:42:43;1.50;1.00
21207;DHT22;10761;48.532;8.026;2023-04-06T00:45:09;1.50;1.00
21207;DHT22;10761;48.532;8.026;2023-04-06T00:47:35;1.50;1.00
21207;DHT22;10761;48.532;8.026;2023-04-06T00:50:01;1.50;1.00
21207;DHT22;10761;48.532;8.026;2023-04-06T00:52:26;1.60;99.90
21207;DHT22;10761;48.532;8.026;2023-04-06T00:54:52;1.50;99.90
21207;DHT22;10761;48.532;8.026;2023-04-06T00:57:18;1.50;99.90
21207;DHT22;10761;48.532;8.026;2023-04-06T00:59:44;1.50;99.90
21207;DHT22;10761;48.532;8.026;2023-04-06T01:02:10;1.40;1.00
21207;DHT22;10761;48.532;8.026;2023-04-06T01:04:36;1.50;1.00
21207;DHT22;10761;48.532;8.026;2023-04-06T01:07:01;1.50;99.90
21207;DHT22;10761;48.532;8.026;2023-04-06T01:09:28;1.50;99.90
21207;DHT22;10761;48.532;8.026;2023-04-06T01:11:55;1.50;1.00
21207;DHT22;10761;48.532;8.026;2023-04-06T01:14:21;1.50;1.00
21207;DHT22;10761;48.532;8.026;2023-04-06T01:16:47;1.50;1.00
21207;DHT22;10761;48.532;8.026;2023-04-06T01:19:13;1.50;1.00
21207;DHT22;10761;48.532;8.026;2023-04-06T01:21:40;1.50;1.00
21207;DHT22;10761;48.532;8.026;2023-04-06T01:24:06;1.50;1.00
21207;DHT22;10761;48.532;8.026;2023-04-06T01:26:32;1.40;1.00
21207;DHT22;10761;48.532;8.026;2023-04-06T01:28:58;1.40;99.90
21207;DHT22;10761;48.532;8.026;2023-04-06T01:31:24;1.40;1.00
21207;DHT22;10761;48.532;8.026;2023-04-06T01:33:50;1.40;1.00
21207;DHT22;10761;48.532;8.026;2023-04-06T01:36:16;1.40;13.80
21207;DHT22;10761;48.532;8.026;2023-04-06T01:38:42;1.40;99.90
21207;DHT22;10761;48.532;8.026;2023-04-06T01:41:08;1.30;1.00
21207;DHT22;10761;48.532;8.026;2023-04-06T01:43:34;1.30;17.00
21207;DHT22;10761;48.532;8.026;2023-04-06T01:46:00;1.30;36.80
21207;DHT22;10761;48.532;8.026;2023-04-06T01:48:26;1.30;99.90
21207;DHT22;10761;48.532;8.026;2023-04-06T01:50:52;1.20;99.90
21207;DHT22;10761;48.532;8.026;2023-04-06T01:53:18;1.20;99.90
21207;DHT22;10761;48.532;8.026;2023-04-06T01:55:43;1.10;1.00
21207;DHT22;10761;48.532;8.026;2023-04-06T01:58:09;1.10;1.00
21207;DHT22;10761;48.532;8.026;2023-04-06T02:00:34;1.10;1.00
21207;DHT22;10761;48.532;8.026;2023-04-06T02:03:00;1.10;1.00
21207;DHT22;10761;48.532;8.026;2023-04-06T02:05:28;1.00;1.00
21207;DHT22;10761;48.532;8.026;2023-04-06T02:07:53;1.00;1.00
21207;DHT22;10761;48.532;8.026;2023-04-06T02:10:19;0.90;12.50
21207;DHT22;10761;48.532;8.026;2023-04-06T02:12:44;0.90;16.70
21207;DHT22;10761;48.532;8.026;2023-04-06T02:15:10;0.80;1.00
21207;DHT22;10761;48.532;8.026;2023-04-06T02:17:38;0.80;99.90
21207;DHT22;10761;48.532;8.026;2023-04-06T02:20:05;0.70;1.00
21207;DHT22;10761;48.532;8.026;2023-04-06T02:22:30;0.70;99.90
21207;DHT22;10761;48.532;8.026;2023-04-06T02:24:56;0.60;99.90
21207;DHT22;10761;48.532;8.026;2023-04-06T02:27:22;0.60;1.00
21207;DHT22;10761;48.532;8.026;2023-04-06T02:29:47;0.50;1.00
21207;DHT22;10761;48.532;8.026;2023-04-06T02:32:13;0.50;1.00
21207;DHT22;10761;48.532;8.026;2023-04-06T02:34:38;0.50;1.00
21207;DHT22;10761;48.532;8.026;2023-04-06T02:37:04;0.60;71.50
21207;DHT22;10761;48.532;8.026;2023-04-06T02:39:30;0.60;1.00
21207;DHT22;10761;48.532;8.026;2023-04-06T02:41:55;0.60;1.00
21207;DHT22;10761;48.532;8.026;2023-04-06T02:44:22;0.60;1.00
21207;DHT22;10761;48.532;8.026;2023-04-06T02:46:48;0.60;1.00
21207;DHT22;10761;48.532;8.026;2023-04-06T02:49:13;0.60;1.00
21207;DHT22;10761;48.532;8.026;2023-04-06T02:51:39;0.70;1.00
21207;DHT22;10761;48.532;8.026;2023-04-06T02:54:04;0.70;99.90
21207;DHT22;10761;48.532;8.026;2023-04-06T02:56:30;0.70;99.90
21207;DHT22;10761;48.532;8.026;2023-04-06T02:58:55;0.70;1.00
21207;DHT22;10761;48.532;8.026;2023-04-06T03:01:21;0.70;1.00
21207;DHT22;10761;48.532;8.026;2023-04-06T03:03:47;0.70;99.90
21207;DHT22;10761;48.532;8.026;2023-04-06T03:06:12;0.70;1.00
21207;DHT22;10761;48.532;8.026;2023-04-06T03:08:38;0.70;99.90
21207;DHT22;10761;48.532;8.026;2023-04-06T03:11:04;0.70;99.90
21207;DHT22;10761;48.532;8.026;2023-04-06T03:13:29;0.60;99.90
21207;DHT22;10761;48.532;8.026;2023-04-06T03:15:55;0.60;1.00
21207;DHT22;10761;48.532;8.026;2023-04-06T03:18:24;0.50;1.00
21207;DHT22;10761;48.532;8.026;2023-04-06T03:20:51;0.50;99.90
21207;DHT22;10761;48.532;8.026;2023-04-06T03:23:19;0.50;21.60
21207;DHT22;10761;48.532;8.026;2023-04-06T03:25:46;0.50;1.00
21207;DHT22;10761;48.532;8.026;2023-04-06T03:28:11;0.60;99.90
21207;DHT22;10761;48.532;8.026;2023-04-06T03:30:37;0.70;1.00
21207;DHT22;10761;48.532;8.026;2023-04-06T03:33:03;0.70;1.00
21207;DHT22;10761;48.532;8.026;2023-04-06T03:35:28;0.70;1.00
21207;DHT22;10761;48.532;8.026;2023-04-06T03:37:54;0.60;1.00
21207;DHT22;10761;48.532;8.026;2023-04-06T03:40:19;0.70;1.00
21207;DHT22;10761;48.532;8.026;2023-04-06T03:42:45;0.70;1.00
21207;DHT22;10761;48.532;8.026;2023-04-06T03:45:11;0.70;1.00
21207;DHT22;10761;48.532;8.026;2023-04-06T03:47:38;0.70;99.90
21207;DHT22;10761;48.532;8.026;2023-04-06T03:50:04;0.60;99.90
21207;DHT22;10761;48.532;8.026;2023-04-06T03:52:30;0.60;99.90
21207;DHT22;10761;48.532;8.026;2023-04-06T03:54:55;0.50;99.90
21207;DHT22;10761;48.532;8.026;2023-04-06T03:57:21;0.50;1.00
21207;DHT22;10761;48.532;8.026;2023-04-06T03:59:46;0.40;1.00
21207;DHT22;10761;48.532;8.026;2023-04-06T04:02:12;0.40;1.00
21207;DHT22;10761;48.532;8.026;2023-04-06T04:04:38;0.40;1.00
21207;DHT22;10761;48.532;8.026;2023-04-06T04:07:03;0.40;99.90
21207;DHT22;10761;48.532;8.026;2023-04-06T04:09:29;0.50;99.90
21207;DHT22;10761;48.532;8.026;2023-04-06T04:11:54;0.40;1.00
21207;DHT22;10761;48.532;8.026;2023-04-06T04:14:20;0.40;1.00
21207;DHT22;10761;48.532;8.026;2023-04-06T04:16:46;0.30;1.00
21207;DHT22;10761;48.532;8.026;2023-04-06T04:19:12;0.30;1.00
21207;DHT22;10761;48.532;8.026;2023-04-06T04:21:44;0.20;1.00
21207;DHT22;10761;48.532;8.026;2023-04-06T04:24:10;0.10;99.90
21207;DHT22;10761;48.532;8.026;2023-04-06T04:26:36;0.10;1.00
21207;DHT22;10761;48.532;8.026;2023-04-06T04:29:02;0.10;34.70
21207;DHT22;10761;48.532;8.026;2023-04-06T04:31:28;0.10;99.90
21207;DHT22;10761;48.532;8.026;2023-04-06T04:33:53;0.00;99.90
21207;DHT22;10761;48.532;8.026;2023-04-06T04:36:19;0.00;99.90
21207;DHT22;10761;48.532;8.026;2023-04-06T04:38:45;0.00;1.00
21207;DHT22;10761;48.532;8.026;2023-04-06T04:41:10;0.00;99.90
21207;DHT22;10761;48.532;8.026;2023-04-06T04:43:36;0.00;1.00
21207;DHT22;10761;48.532;8.026;2023-04-06T04:46:01;0.00;1.00
21207;DHT22;10761;48.532;8.026;2023-04-06T04:48:29;0.00;1.00
21207;DHT22;10761;48.532;8.026;2023-04-06T04:50:54;0.00;99.90
21207;DHT22;10761;48.532;8.026;2023-04-06T04:53:20;0.20;99.90
21207;DHT22;10761;48.532;8.026;2023-04-06T04:55:46;0.30;1.00
21207;DHT22;10761;48.532;8.026;2023-04-06T04:58:11;0.30;1.00
21207;DHT22;10761;48.532;8.026;2023-04-06T05:00:42;0.30;1.00
21207;DHT22;10761;48.532;8.026;2023-04-06T05:03:08;0.40;99.90
21207;DHT22;10761;48.532;8.026;2023-04-06T05:05:33;0.30;1.00
21207;DHT22;10761;48.532;8.026;2023-04-06T05:07:59;0.30;99.90
21207;DHT22;10761;48.532;8.026;2023-04-06T05:10:25;0.40;1.00
21207;DHT22;10761;48.532;8.026;2023-04-06T05:12:50;0.50;99.90
21207;DHT22;10761;48.532;8.026;2023-04-06T05:15:16;0.60;1.00
21207;DHT22;10761;48.532;8.026;2023-04-06T05:17:41;0.70;1.00
21207;DHT22;10761;48.532;8.026;2023-04-06T05:20:07;0.80;1.00
21207;DHT22;10761;48.532;8.026;2023-04-06T05:22:33;0.80;1.00
21207;DHT22;10761;48.532;8.026;2023-04-06T05:24:59;0.80;1.00
21207;DHT22;10761;48.532;8.026;2023-04-06T05:27:24;0.80;1.00
21207;DHT22;10761;48.532;8.026;2023-04-06T05:29:50;0.90;1.00
21207;DHT22;10761;48.532;8.026;2023-04-06T05:32:16;1.00;99.90
21207;DHT22;10761;48.532;8.026;2023-04-06T05:34:41;1.20;1.00
21207;DHT22;10761;48.532;8.026;2023-04-06T05:37:07;1.30;1.00
21207;DHT22;10761;48.532;8.026;2023-04-06T05:39:32;1.50;1.00
21207;DHT22;10761;48.532;8.026;2023-04-06T05:41:58;1.70;99.90
21207;DHT22;10761;48.532;8.026;2023-04-06T05:44:23;1.90;99.90
21207;DHT22;10761;48.532;8.026;2023-04-06T05:46:49;2.00;93.80
21207;DHT22;10761;48.532;8.026;2023-04-06T05:49:14;2.20;54.50
21207;DHT22;10761;48.532;8.026;2023-04-06T05:51:40;2.20;72.80
21207;DHT22;10761;48.532;8.026;2023-04-06T05:54:06;2.20;99.90
21207;DHT22;10761;48.532;8.026;2023-04-06T05:56:31;2.20;99.90
21207;DHT22;10761;48.532;8.026;2023-04-06T05:58:57;2.40;99.90
21207;DHT22;10761;48.532;8.026;2023-04-06T06:01:22;2.60;1.00
21207;DHT22;10761;48.532;8.026;2023-04-06T06:03:48;2.80;1.00
21207;DHT22;10761;48.532;8.026;2023-04-06T06:06:14;3.00;1.00
21207;DHT22;10761;48.532;8.026;2023-04-06T06:08:39;3.20;1.00
21207;DHT22;10761;48.532;8.026;2023-04-06T06:11:05;3.40;1.00
21207;DHT22;10761;48.532;8.026;2023-04-06T06:13:30;3.70;1.00
21207;DHT22;10761;48.532;8.026;2023-04-06T06:15:56;3.90;1.00
21207;DHT22;10761;48.532;8.026;2023-04-06T06:18:22;4.20;1.00
21207;DHT22;10761;48.532;8.026;2023-04-06T06:20:47;4.50;1.00
21207;DHT22;10761;48.532;8.026;2023-04-06T06:23:13;4.60;1.00
21207;DHT22;10761;48.532;8.026;2023-04-06T06:25:39;4.50;1.00
21207;DHT22;10761;48.532;8.026;2023-04-06T06:28:05;4.30;1.00
21207;DHT22;10761;48.532;8.026;2023-04-06T06:30:30;4.30;1.00
21207;DHT22;10761;48.532;8.026;2023-04-06T06:32:56;4.70;1.00
21207;DHT22;10761;48.532;8.026;2023-04-06T06:35:21;5.10;1.00
21207;DHT22;10761;48.532;8.026;2023-04-06T06:37:47;5.20;1.00
21207;DHT22;10761;48.532;8.026;2023-04-06T06:40:13;5.60;1.00
21207;DHT22;10761;48.532;8.026;2023-04-06T06:42:40;5.70;1.00
21207;DHT22;10761;48.532;8.026;2023-04-06T06:45:08;6.00;1.00
21207;DHT22;10761;48.532;8.026;2023-04-06T06:47:34;6.50;99.90
21207;DHT22;10761;48.532;8.026;2023-04-06T06:50:00;5.90;99.90
21207;DHT22;10761;48.532;8.026;2023-04-06T06:52:25;5.20;99.90
21207;DHT22;10761;48.532;8.026;2023-04-06T06:54:51;4.90;99.90
21207;DHT22;10761;48.532;8.026;2023-04-06T06:57:16;4.70;99.90
21207;DHT22;10761;48.532;8.026;2023-04-06T06:59:42;4.60;1.00
21207;DHT22;10761;48.532;8.026;2023-04-06T07:02:07;4.60;1.00
21207;DHT22;10761;48.532;8.026;2023-04-06T07:04:33;4.80;1.00
21207;DHT22;10761;48.532;8.026;2023-04-06T07:06:59;5.50;1.00
21207;DHT22;10761;48.532;8.026;2023-04-06T07:09:24;6.20;1.00
21207;DHT22;10761;48.532;8.026;2023-04-06T07:11:51;7.00;1.00
21207;DHT22;10761;48.532;8.026;2023-04-06T07:14:17;7.70;99.90
21207;DHT22;10761;48.532;8.026;2023-04-06T07:16:43;8.30;99.90
21207;DHT22;10761;48.532;8.026;2023-04-06T07:19:10;8.70;99.90
21207;DHT22;10761;48.532;8.026;2023-04-06T07:21:36;9.20;99.90
21207;DHT22;10761;48.532;8.026;2023-04-06T07:24:02;9.60;99.90
21207;DHT22;10761;48.532;8.026;2023-04-06T07:26:27;9.90;99.90
21207;DHT22;10761;48.532;8.026;2023-04-06T07:28:53;9.60;99.90
21207;DHT22;10761;48.532;8.026;2023-04-06T07:31:18;9.90;99.90
21207;DHT22;10761;48.532;8.026;2023-04-06T07:33:44;10.30;99.90
21207;DHT22;10761;48.532;8.026;2023-04-06T07:36:10;10.80;99.90
21207;DHT22;10761;48.532;8.026;2023-04-06T07:38:35;10.90;99.90
21207;DHT22;10761;48.532;8.026;2023-04-06T07:41:01;11.60;99.90
21207;DHT22;10761;48.532;8.026;2023-04-06T07:43:29;12.10;99.90
21207;DHT22;10761;48.532;8.026;2023-04-06T07:45:55;11.70;99.90
21207;DHT22;10761;48.532;8.026;2023-04-06T07:48:22;11.20;99.90
21207;DHT22;10761;48.532;8.026;2023-04-06T07:50:48;11.00;99.90
21207;DHT22;10761;48.532;8.026;2023-04-06T07:53:14;11.10;99.90
21207;DHT22;10761;48.532;8.026;2023-04-06T07:55:39;11.60;99.90
21207;DHT22;10761;48.532;8.026;2023-04-06T07:58:05;11.30;99.90
21207;DHT22;10761;48.532;8.026;2023-04-06T08:00:31;10.90;99.90
21207;DHT22;10761;48.532;8.026;2023-04-06T08:02:56;10.70;99.90
21207;DHT22;10761;48.532;8.026;2023-04-06T08:05:22;10.60;99.90
21207;DHT22;10761;48.532;8.026;2023-04-06T08:07:47;10.50;99.90
21207;DHT22;10761;48.532;8.026;2023-04-06T08:10:13;10.70;92.90
21207;DHT22;10761;48.532;8.026;2023-04-06T08:12:39;10.50;99.90
21207;DHT22;10761;48.532;8.026;2023-04-06T08:15:05;10.60;99.90
21207;DHT22;10761;48.532;8.026;2023-04-06T08:17:32;11.00;98.30
21207;DHT22;10761;48.532;8.026;2023-04-06T08:19:57;10.70;99.90
21207;DHT22;10761;48.532;8.026;2023-04-06T08:22:23;11.70;93.70
21207;DHT22;10761;48.532;8.026;2023-04-06T08:24:48;11.80;64.30
21207;DHT22;10761;48.532;8.026;2023-04-06T08:27:14;12.70;46.40
21207;DHT22;10761;48.532;8.026;2023-04-06T08:29:40;12.50;26.10
21207;DHT22;10761;48.532;8.026;2023-04-06T08:32:05;11.70;27.60
21207;DHT22;10761;48.532;8.026;2023-04-06T08:34:34;11.60;33.10
21207;DHT22;10761;48.532;8.026;2023-04-06T08:37:01;11.50;33.70
21207;DHT22;10761;48.532;8.026;2023-04-06T08:39:27;11.60;32.00
21207;DHT22;10761;48.532;8.026;2023-04-06T08:41:53;11.90;24.30
21207;DHT22;10761;48.532;8.026;2023-04-06T08:44:22;11.70;50.80
21207;DHT22;10761;48.532;8.026;2023-04-06T08:46:48;11.40;12.50
21207;DHT22;10761;48.532;8.026;2023-04-06T08:49:16;12.00;15.10
21207;DHT22;10761;48.532;8.026;2023-04-06T08:51:42;11.60;15.50
21207;DHT22;10761;48.532;8.026;2023-04-06T08:54:08;11.50;12.30
21207;DHT22;10761;48.532;8.026;2023-04-06T08:56:36;12.10;20.50
21207;DHT22;10761;48.532;8.026;2023-04-06T08:59:03;12.20;12.00
21207;DHT22;10761;48.532;8.026;2023-04-06T09:01:29;11.70;5.60
21207;DHT22;10761;48.532;8.026;2023-04-06T09:03:57;11.20;8.60
21207;DHT22;10761;48.532;8.026;2023-04-06T09:06:24;11.10;10.80
21207;DHT22;10761;48.532;8.026;2023-04-06T09:08:51;10.80;1.20
21207;DHT22;10761;48.532;8.026;2023-04-06T09:11:17;10.20;5.60
21207;DHT22;10761;48.532;8.026;2023-04-06T09:13:51;10.00;24.60
21207;DHT22;10761;48.532;8.026;2023-04-06T09:16:17;10.00;27.20
21207;DHT22;10761;48.532;8.026;2023-04-06T09:18:43;10.00;21.80
21207;DHT22;10761;48.532;8.026;2023-04-06T09:21:10;10.30;17.20
21207;DHT22;10761;48.532;8.026;2023-04-06T09:23:35;10.70;15.30
21207;DHT22;10761;48.532;8.026;2023-04-06T09:26:08;10.80;4.00
21207;DHT22;10761;48.532;8.026;2023-04-06T09:28:49;11.30;12.20
21207;DHT22;10761;48.532;8.026;2023-04-06T09:31:20;11.50;1.00
21207;DHT22;10761;48.532;8.026;2023-04-06T09:33:46;11.20;1.00
21207;DHT22;10761;48.532;8.026;2023-04-06T09:36:12;11.00;1.00
21207;DHT22;10761;48.532;8.026;2023-04-06T09:39:01;11.10;1.00
21207;DHT22;10761;48.532;8.026;2023-04-06T09:41:28;11.40;1.00
21207;DHT22;10761;48.532;8.026;2023-04-06T09:44:05;11.40;1.00
21207;DHT22;10761;48.532;8.026;2023-04-06T09:46:38;11.70;14.60
21207;DHT22;10761;48.532;8.026;2023-04-06T09:49:05;11.90;17.20
21207;DHT22;10761;48.532;8.026;2023-04-06T09:51:38;11.80;1.00
21207;DHT22;10761;48.532;8.026;2023-04-06T09:54:05;12.10;1.00
21207;DHT22;10761;48.532;8.026;2023-04-06T09:56:37;12.10;1.00
21207;DHT22;10761;48.532;8.026;2023-04-06T09:59:05;11.90;2.00
21207;DHT22;10761;48.532;8.026;2023-04-06T10:01:35;11.90;1.00
21207;DHT22;10761;48.532;8.026;2023-04-06T10:04:29;12.00;1.00
21207;DHT22;10761;48.532;8.026;2023-04-06T10:06:59;12.40;6.30
21207;DHT22;10761;48.532;8.026;2023-04-06T10:09:28;12.40;1.00
21207;DHT22;10761;48.532;8.026;2023-04-06T10:12:04;12.50;1.00
21207;DHT22;10761;48.532;8.026;2023-04-06T10:14:34;12.60;1.00
21207;DHT22;10761;48.532;8.026;2023-04-06T10:17:05;12.80;1.00
21207;DHT22;10761;48.532;8.026;2023-04-06T10:19:44;13.10;1.00
21207;DHT22;10761;48.532;8.026;2023-04-06T10:22:20;13.40;1.00
21207;DHT22;10761;48.532;8.026;2023-04-06T10:24:48;13.60;1.00
21207;DHT22;10761;48.532;8.026;2023-04-06T10:27:13;13.20;1.00
21207;DHT22;10761;48.532;8.026;2023-04-06T10:29:46;12.90;1.00
21207;DHT22;10761;48.532;8.026;2023-04-06T10:32:13;13.00;1.00
21207;DHT22;10761;48.532;8.026;2023-04-06T10:34:39;12.80;1.00
21207;DHT22;10761;48.532;8.026;2023-04-06T10:37:16;13.00;1.00
21207;DHT22;10761;48.532;8.026;2023-04-06T10:40:17;13.10;1.00
21207;DHT22;10761;48.532;8.026;2023-04-06T10:42:43;12.90;1.00
21207;DHT22;10761;48.532;8.026;2023-04-06T10:45:19;12.80;1.00
21207;DHT22;10761;48.532;8.026;2023-04-06T10:47:46;13.30;1.00
21207;DHT22;10761;48.532;8.026;2023-04-06T10:50:14;13.60;1.00
21207;DHT22;10761;48.532;8.026;2023-04-06T10:52:41;13.50;1.00
21207;DHT22;10761;48.532;8.026;2023-04-06T10:55:08;13.50;1.00
21207;DHT22;10761;48.532;8.026;2023-04-06T10:57:35;13.80;1.00
21207;DHT22;10761;48.532;8.026;2023-04-06T11:00:04;14.50;1.00
21207;DHT22;10761;48.532;8.026;2023-04-06T11:02:30;14.50;1.00
21207;DHT22;10761;48.532;8.026;2023-04-06T11:04:56;14.80;1.00
21207;DHT22;10761;48.532;8.026;2023-04-06T11:07:26;15.20;1.00
21207;DHT22;10761;48.532;8.026;2023-04-06T11:09:53;15.30;1.00
21207;DHT22;10761;48.532;8.026;2023-04-06T11:12:28;15.00;1.00
21207;DHT22;10761;48.532;8.026;2023-04-06T11:15:00;14.70;1.00
21207;DHT22;10761;48.532;8.026;2023-04-06T11:17:34;14.70;1.00
21207;DHT22;10761;48.532;8.026;2023-04-06T11:20:02;14.80;1.00
21207;DHT22;10761;48.532;8.026;2023-04-06T11:22:29;14.30;1.00
21207;DHT22;10761;48.532;8.026;2023-04-06T11:25:07;14.60;1.00
21207;DHT22;10761;48.532;8.026;2023-04-06T11:27:34;15.30;1.00
21207;DHT22;10761;48.532;8.026;2023-04-06T11:30:00;15.50;1.00
21207;DHT22;10761;48.532;8.026;2023-04-06T11:32:26;15.60;1.00
21207;DHT22;10761;48.532;8.026;2023-04-06T11:34:52;15.10;1.00
21207;DHT22;10761;48.532;8.026;2023-04-06T11:37:21;15.10;1.00
21207;DHT22;10761;48.532;8.026;2023-04-06T11:39:53;15.10;1.00
21207;DHT22;10761;48.532;8.026;2023-04-06T11:42:29;15.20;1.00
21207;DHT22;10761;48.532;8.026;2023-04-06T11:44:55;15.50;1.00
21207;DHT22;10761;48.532;8.026;2023-04-06T11:47:28;15.70;1.00
21207;DHT22;10761;48.532;8.026;2023-04-06T11:49:54;16.30;1.00
21207;DHT22;10761;48.532;8.026;2023-04-06T11:52:25;17.00;1.00
21207;DHT22;10761;48.532;8.026;2023-04-06T11:54:52;17.50;1.00
21207;DHT22;10761;48.532;8.026;2023-04-06T11:57:57;17.50;1.00
21207;DHT22;10761;48.532;8.026;2023-04-06T12:00:22;16.50;1.00
21207;DHT22;10761;48.532;8.026;2023-04-06T12:02:57;15.70;1.00
21207;DHT22;10761;48.532;8.026;2023-04-06T12:05:24;16.40;1.00
21207;DHT22;10761;48.532;8.026;2023-04-06T12:07:50;16.80;1.00
21207;DHT22;10761;48.532;8.026;2023-04-06T12:10:16;17.10;1.00
21207;DHT22;10761;48.532;8.026;2023-04-06T12:12:41;17.80;1.00
21207;DHT22;10761;48.532;8.026;2023-04-06T12:15:07;18.30;1.00
21207;DHT22;10761;48.532;8.026;2023-04-06T12:17:33;18.60;1.00
21207;DHT22;10761;48.532;8.026;2023-04-06T12:19:59;18.30;1.00
21207;DHT22;10761;48.532;8.026;2023-04-06T12:22:24;16.90;1.00
21207;DHT22;10761;48.532;8.026;2023-04-06T12:24:50;16.10;6.90
21207;DHT22;10761;48.532;8.026;2023-04-06T12:27:15;15.50;1.00
21207;DHT22;10761;48.532;8.026;2023-04-06T12:29:42;15.10;1.00
21207;DHT22;10761;48.532;8.026;2023-04-06T12:32:08;15.20;1.00
21207;DHT22;10761;48.532;8.026;2023-04-06T12:34:34;15.50;1.00
21207;DHT22;10761;48.532;8.026;2023-04-06T12:37:00;15.50;1.00
21207;DHT22;10761;48.532;8.026;2023-04-06T12:39:27;15.60;1.00
21207;DHT22;10761;48.532;8.026;2023-04-06T12:41:52;15.90;1.00
21207;DHT22;10761;48.532;8.026;2023-04-06T12:44:18;16.00;1.00
21207;DHT22;10761;48.532;8.026;2023-04-06T12:46:44;16.90;1.00
21207;DHT22;10761;48.532;8.026;2023-04-06T12:49:10;17.00;1.00
21207;DHT22;10761;48.532;8.026;2023-04-06T12:51:36;17.50;20.60
21207;DHT22;10761;48.532;8.026;2023-04-06T12:54:02;17.30;99.90
21207;DHT22;10761;48.532;8.026;2023-04-06T12:56:28;16.80;99.90
21207;DHT22;10761;48.532;8.026;2023-04-06T12:58:54;16.60;99.90
21207;DHT22;10761;48.532;8.026;2023-04-06T13:01:20;17.10;99.90
21207;DHT22;10761;48.532;8.026;2023-04-06T13:03:46;17.60;44.10
21207;DHT22;10761;48.532;8.026;2023-04-06T13:06:12;17.90;23.10
21207;DHT22;10761;48.532;8.026;2023-04-06T13:08:38;17.80;28.50
21207;DHT22;10761;48.532;8.026;2023-04-06T13:11:04;17.60;70.50
21207;DHT22;10761;48.532;8.026;2023-04-06T13:13:30;17.50;45.70
21207;DHT22;10761;48.532;8.026;2023-04-06T13:16:01;17.70;99.90
21207;DHT22;10761;48.532;8.026;2023-04-06T13:18:28;17.60;99.90
21207;DHT22;10761;48.532;8.026;2023-04-06T13:20:55;16.60;70.90
21207;DHT22;10761;48.532;8.026;2023-04-06T13:23:22;15.90;80.20
21207;DHT22;10761;48.532;8.026;2023-04-06T13:25:47;15.60;93.10
21207;DHT22;10761;48.532;8.026;2023-04-06T13:28:13;15.90;93.40
21207;DHT22;10761;48.532;8.026;2023-04-06T13:30:39;16.20;99.90
21207;DHT22;10761;48.532;8.026;2023-04-06T13:33:04;16.40;99.90
21207;DHT22;10761;48.532;8.026;2023-04-06T13:35:31;16.50;99.90
21207;DHT22;10761;48.532;8.026;2023-04-06T13:37:57;16.20;99.90
21207;DHT22;10761;48.532;8.026;2023-04-06T13:40:23;16.30;99.90
21207;DHT22;10761;48.532;8.026;2023-04-06T13:42:48;16.00;99.90
21207;DHT22;10761;48.532;8.026;2023-04-06T13:45:14;15.90;99.90
21207;DHT22;10761;48.532;8.026;2023-04-06T13:47:40;15.30;96.30
21207;DHT22;10761;48.532;8.026;2023-04-06T13:50:06;15.10;76.30
21207;DHT22;10761;48.532;8.026;2023-04-06T13:52:32;15.20;1.00
21207;DHT22;10761;48.532;8.026;2023-04-06T13:54:58;15.40;1.00
21207;DHT22;10761;48.532;8.026;2023-04-06T13:57:23;15.50;1.00
21207;DHT22;10761;48.532;8.026;2023-04-06T13:59:50;15.70;1.00
21207;DHT22;10761;48.532;8.026;2023-04-06T14:02:16;15.90;1.00
21207;DHT22;10761;48.532;8.026;2023-04-06T14:04:41;16.40;1.00
21207;DHT22;10761;48.532;8.026;2023-04-06T14:07:07;16.70;1.00
21207;DHT22;10761;48.532;8.026;2023-04-06T14:09:33;16.60;1.00
21207;DHT22;10761;48.532;8.026;2023-04-06T14:11:59;17.00;1.00
21207;DHT22;10761;48.532;8.026;2023-04-06T14:14:25;17.10;1.00
21207;DHT22;10761;48.532;8.026;2023-04-06T14:16:51;17.10;1.00
21207;DHT22;10761;48.532;8.026;2023-04-06T14:19:17;16.90;1.00
21207;DHT22;10761;48.532;8.026;2023-04-06T14:21:44;16.70;1.00
21207;DHT22;10761;48.532;8.026;2023-04-06T14:24:10;16.10;1.00
21207;DHT22;10761;48.532;8.026;2023-04-06T14:26:36;15.30;1.00
21207;DHT22;10761;48.532;8.026;2023-04-06T14:29:04;14.50;1.00
21207;DHT22;10761;48.532;8.026;2023-04-06T14:31:30;14.30;1.00
21207;DHT22;10761;48.532;8.026;2023-04-06T14:33:56;14.10;1.00
21207;DHT22;10761;48.532;8.026;2023-04-06T14:36:22;14.10;1.00
21207;DHT22;10761;48.532;8.026;2023-04-06T14:38:48;14.30;1.00
21207;DHT22;10761;48.532;8.026;2023-04-06T14:41:18;14.70;1.00
21207;DHT22;10761;48.532;8.026;2023-04-06T14:43:44;15.10;1.00
21207;DHT22;10761;48.532;8.026;2023-04-06T14:46:10;15.50;1.00
21207;DHT22;10761;48.532;8.026;2023-04-06T14:48:36;15.70;1.00
21207;DHT22;10761;48.532;8.026;2023-04-06T14:51:02;15.80;1.00
21207;DHT22;10761;48.532;8.026;2023-04-06T14:53:28;15.90;1.00
21207;DHT22;10761;48.532;8.026;2023-04-06T14:55:56;15.70;1.00
21207;DHT22;10761;48.532;8.026;2023-04-06T14:58:22;15.40;1.00
21207;DHT22;10761;48.532;8.026;2023-04-06T15:00:48;15.00;1.00
21207;DHT22;10761;48.532;8.026;2023-04-06T15:03:15;14.80;1.00
21207;DHT22;10761;48.532;8.026;2023-04-06T15:05:40;14.90;1.00
21207;DHT22;10761;48.532;8.026;2023-04-06T15:08:06;14.80;1.00
21207;DHT22;10761;48.532;8.026;2023-04-06T15:10:34;14.60;1.00
21207;DHT22;10761;48.532;8.026;2023-04-06T15:13:00;14.10;1.00
21207;DHT22;10761;48.532;8.026;2023-04-06T15:15:26;13.90;1.00
21207;DHT22;10761;48.532;8.026;2023-04-06T15:17:51;13.90;1.00
21207;DHT22;10761;48.532;8.026;2023-04-06T15:20:17;14.00;1.00
21207;DHT22;10761;48.532;8.026;2023-04-06T15:22:43;14.30;1.00
21207;DHT22;10761;48.532;8.026;2023-04-06T15:25:09;14.50;1.00
21207;DHT22;10761;48.532;8.026;2023-04-06T15:27:34;14.50;1.00
21207;DHT22;10761;48.532;8.026;2023-04-06T15:30:00;14.30;1.00
21207;DHT22;10761;48.532;8.026;2023-04-06T15:32:26;14.10;1.00
21207;DHT22;10761;48.532;8.026;2023-04-06T15:34:53;13.90;1.00
21207;DHT22;10761;48.532;8.026;2023-04-06T15:37:18;13.80;2.60
21207;DHT22;10761;48.532;8.026;2023-04-06T15:39:44;13.70;1.00
21207;DHT22;10761;48.532;8.026;2023-04-06T15:42:10;13.60;1.00
21207;DHT22;10761;48.532;8.026;2023-04-06T15:44:35;13.40;1.20